sensor_id;sensor_type;location;lat;lon;timestamp;temperature;humidity
38938;DHT22;24727;51.974;20.868;2023-06-19T00:02:12;13.90;1.00
38938;DHT22;24727;51.974;20.868;2023-06-19T00:04:38;13.80;1.00
38938;DHT22;24727;51.974;20.868;2023-06-19T00:07:04;13.70;1.00
38938;DHT22;24727;51.974;20.868;2023-06-19T00:09:30;13.60;1.00
38938;DHT22;24727;51.974;20.868;2023-06-19T00:11:56;13.60;1.00
38938;DHT22;24727;51.974;20.868;2023-06-19T00:14:23;13.60;1.00
38938;DHT22;24727;51.974;20.868;2023-06-19T00:16:49;13.70;1.00
38938;DHT22;24727;51.974;20.868;2023-06-19T00:19:17;13.70;1.00
38938;DHT22;24727;51.974;20.868;2023-06-19T00:21:43;13.70;1.00
38938;DHT22;24727;51.974;20.868;2023-06-19T00:24:10;13.70;1.00
38938;DHT22;24727;51.974;20.868;2023-06-19T00:26:37;13.60;1.00
38938;DHT22;24727;51.974;20.868;2023-06-19T00:29:03;13.50;1.00
38938;DHT22;24727;51.974;20.868;2023-06-19T00:31:29;13.30;1.00
38938;DHT22;24727;51.974;20.868;2023-06-19T00:33:55;13.30;1.00
38938;DHT22;24727;51.974;20.868;2023-06-19T00:36:21;13.20;1.00
38938;DHT22;24727;51.974;20.868;2023-06-19T00:38:50;13.30;1.00
38938;DHT22;24727;51.974;20.868;2023-06-19T00:41:16;13.20;1.00
38938;DHT22;24727;51.974;20.868;2023-06-19T00:43:45;13.20;1.00
38938;DHT22;24727;51.974;20.868;2023-06-19T00:46:11;13.20;1.00
38938;DHT22;24727;51.974;20.868;2023-06-19T00:48:38;13.30;1.00
38938;DHT22;24727;51.974;20.868;2023-06-19T00:51:05;13.30;1.00
38938;DHT22;24727;51.974;20.868;2023-06-19T00:53:32;13.30;1.00
38938;DHT22;24727;51.974;20.868;2023-06-19T00:55:59;13.40;1.00
38938;DHT22;24727;51.974;20.868;2023-06-19T00:58:27;13.30;1.00
38938;DHT22;24727;51.974;20.868;2023-06-19T01:00:54;13.20;1.00
38938;DHT22;24727;51.974;20.868;2023-06-19T01:03:20;13.20;1.00
38938;DHT22;24727;51.974;20.868;2023-06-19T01:05:47;13.20;1.00
38938;DHT22;24727;51.974;20.868;2023-06-19T01:11:02;13.20;1.00
38938;DHT22;24727;51.974;20.868;2023-06-19T01:16:14;13.10;1.00
38938;DHT22;24727;51.974;20.868;2023-06-19T01:18:42;13.10;1.00
38938;DHT22;24727;51.974;20.868;2023-06-19T01:21:16;13.10;1.00
38938;DHT22;24727;51.974;20.868;2023-06-19T01:23:44;13.10;1.00
38938;DHT22;24727;51.974;20.868;2023-06-19T01:26:12;13.10;1.00
38938;DHT22;24727;51.974;20.868;2023-06-19T01:28:40;13.10;1.00
38938;DHT22;24727;51.974;20.868;2023-06-19T01:31:12;13.10;1.00
38938;DHT22;24727;51.974;20.868;2023-06-19T01:33:38;13.20;1.00
38938;DHT22;24727;51.974;20.868;2023-06-19T01:36:06;13.20;1.00
38938;DHT22;24727;51.974;20.868;2023-06-19T01:38:33;13.10;1.00
38938;DHT22;24727;51.974;20.868;2023-06-19T01:41:01;13.10;1.00
38938;DHT22;24727;51.974;20.868;2023-06-19T01:43:30;13.00;1.00
38938;DHT22;24727;51.974;20.868;2023-06-19T01:45:58;12.90;1.00
38938;DHT22;24727;51.974;20.868;2023-06-19T01:48:25;12.80;1.00
38938;DHT22;24727;51.974;20.868;2023-06-19T01:50:51;12.80;1.00
38938;DHT22;24727;51.974;20.868;2023-06-19T01:53:17;12.80;1.00
38938;DHT22;24727;51.974;20.868;2023-06-19T01:55:43;12.80;1.00
38938;DHT22;24727;51.974;20.868;2023-06-19T01:58:09;12.80;1.00
38938;DHT22;24727;51.974;20.868;2023-06-19T02:00:35;12.80;1.00
38938;DHT22;24727;51.974;20.868;2023-06-19T02:03:01;12.80;1.00
38938;DHT22;24727;51.974;20.868;2023-06-19T02:05:29;12.70;1.00
38938;DHT22;24727;51.974;20.868;2023-06-19T02:07:56;12.70;1.00
38938;DHT22;24727;51.974;20.868;2023-06-19T02:10:23;12.70;1.00
38938;DHT22;24727;51.974;20.868;2023-06-19T02:12:50;12.70;1.00
38938;DHT22;24727;51.974;20.868;2023-06-19T02:15:17;12.60;1.00
38938;DHT22;24727;51.974;20.868;2023-06-19T02:17:44;12.60;1.00
38938;DHT22;24727;51.974;20.868;2023-06-19T02:20:11;12.50;1.00
38938;DHT22;24727;51.974;20.868;2023-06-19T02:22:42;12.40;1.00
38938;DHT22;24727;51.974;20.868;2023-06-19T02:25:08;12.40;1.00
38938;DHT22;24727;51.974;20.868;2023-06-19T02:27:34;12.30;1.00
38938;DHT22;24727;51.974;20.868;2023-06-19T02:30:00;12.30;1.00
38938;DHT22;24727;51.974;20.868;2023-06-19T02:32:26;12.30;1.00
38938;DHT22;24727;51.974;20.868;2023-06-19T02:34:52;12.30;1.00
38938;DHT22;24727;51.974;20.868;2023-06-19T02:37:18;12.30;1.00
38938;DHT22;24727;51.974;20.868;2023-06-19T02:39:44;12.30;1.00
38938;DHT22;24727;51.974;20.868;2023-06-19T02:42:10;12.30;1.00
38938;DHT22;24727;51.974;20.868;2023-06-19T02:44:36;12.30;1.00
38938;DHT22;24727;51.974;20.868;2023-06-19T02:47:02;12.30;1.00
38938;DHT22;24727;51.974;20.868;2023-06-19T02:49:28;12.30;1.00
38938;DHT22;24727;51.974;20.868;2023-06-19T02:51:54;12.20;1.00
38938;DHT22;24727;51.974;20.868;2023-06-19T02:54:20;12.10;1.00
38938;DHT22;24727;51.974;20.868;2023-06-19T02:56:48;12.10;1.00
38938;DHT22;24727;51.974;20.868;2023-06-19T02:59:14;12.10;1.00
38938;DHT22;24727;51.974;20.868;2023-06-19T03:01:46;12.10;1.00
38938;DHT22;24727;51.974;20.868;2023-06-19T03:04:13;12.10;1.00
38938;DHT22;24727;51.974;20.868;2023-06-19T03:06:39;12.10;1.00
38938;DHT22;24727;51.974;20.868;2023-06-19T03:09:06;12.10;1.00
38938;DHT22;24727;51.974;20.868;2023-06-19T03:11:42;12.20;1.00
38938;DHT22;24727;51.974;20.868;2023-06-19T03:14:08;12.20;1.00
38938;DHT22;24727;51.974;20.868;2023-06-19T03:16:34;12.20;1.00
38938;DHT22;24727;51.974;20.868;2023-06-19T03:19:07;12.30;1.00
38938;DHT22;24727;51.974;20.868;2023-06-19T03:21:33;12.30;1.00
38938;DHT22;24727;51.974;20.868;2023-06-19T03:24:01;12.40;1.00
38938;DHT22;24727;51.974;20.868;2023-06-19T03:26:27;12.50;1.00
38938;DHT22;24727;51.974;20.868;2023-06-19T03:28:54;12.50;1.00
38938;DHT22;24727;51.974;20.868;2023-06-19T03:31:21;12.60;1.00
38938;DHT22;24727;51.974;20.868;2023-06-19T03:33:49;12.70;1.00
38938;DHT22;24727;51.974;20.868;2023-06-19T03:36:16;12.80;1.00
38938;DHT22;24727;51.974;20.868;2023-06-19T03:38:42;12.90;1.00
38938;DHT22;24727;51.974;20.868;2023-06-19T03:41:08;12.90;1.00
38938;DHT22;24727;51.974;20.868;2023-06-19T03:43:34;13.00;1.00
38938;DHT22;24727;51.974;20.868;2023-06-19T03:46:00;13.10;1.00
38938;DHT22;24727;51.974;20.868;2023-06-19T03:48:25;13.20;1.00
38938;DHT22;24727;51.974;20.868;2023-06-19T03:50:51;13.30;1.00
38938;DHT22;24727;51.974;20.868;2023-06-19T03:53:20;13.40;1.00
38938;DHT22;24727;51.974;20.868;2023-06-19T03:55:46;13.50;1.00
38938;DHT22;24727;51.974;20.868;2023-06-19T03:58:12;13.60;1.00
38938;DHT22;24727;51.974;20.868;2023-06-19T04:00:38;13.60;1.00
38938;DHT22;24727;51.974;20.868;2023-06-19T04:03:04;13.60;1.00
38938;DHT22;24727;51.974;20.868;2023-06-19T04:05:30;13.60;3.40
38938;DHT22;24727;51.974;20.868;2023-06-19T04:07:56;13.70;10.80
38938;DHT22;24727;51.974;20.868;2023-06-19T04:10:23;13.80;15.40
38938;DHT22;24727;51.974;20.868;2023-06-19T04:12:50;13.80;17.30
38938;DHT22;24727;51.974;20.868;2023-06-19T04:15:16;14.00;24.90
38938;DHT22;24727;51.974;20.868;2023-06-19T04:17:48;14.20;12.10
38938;DHT22;24727;51.974;20.868;2023-06-19T04:20:14;14.40;11.50
38938;DHT22;24727;51.974;20.868;2023-06-19T04:22:41;14.50;16.10
38938;DHT22;24727;51.974;20.868;2023-06-19T04:25:09;14.70;16.80
38938;DHT22;24727;51.974;20.868;2023-06-19T04:27:38;14.90;18.10
38938;DHT22;24727;51.974;20.868;2023-06-19T04:30:05;15.10;9.50
38938;DHT22;24727;51.974;20.868;2023-06-19T04:32:33;15.30;17.20
38938;DHT22;24727;51.974;20.868;2023-06-19T04:35:00;15.40;19.70
38938;DHT22;24727;51.974;20.868;2023-06-19T04:37:26;15.60;16.00
38938;DHT22;24727;51.974;20.868;2023-06-19T04:39:52;15.80;14.20
38938;DHT22;24727;51.974;20.868;2023-06-19T04:42:19;16.10;7.00
38938;DHT22;24727;51.974;20.868;2023-06-19T04:44:49;16.30;2.60
38938;DHT22;24727;51.974;20.868;2023-06-19T04:47:19;16.50;1.00
38938;DHT22;24727;51.974;20.868;2023-06-19T04:49:45;16.50;1.00
38938;DHT22;24727;51.974;20.868;2023-06-19T04:52:12;16.50;1.00
38938;DHT22;24727;51.974;20.868;2023-06-19T04:54:38;16.60;1.00
38938;DHT22;24727;51.974;20.868;2023-06-19T04:57:05;16.80;1.00
38938;DHT22;24727;51.974;20.868;2023-06-19T04:59:32;16.90;1.00
38938;DHT22;24727;51.974;20.868;2023-06-19T05:01:59;16.90;1.00
38938;DHT22;24727;51.974;20.868;2023-06-19T05:04:25;17.00;1.00
38938;DHT22;24727;51.974;20.868;2023-06-19T05:06:52;17.10;1.00
38938;DHT22;24727;51.974;20.868;2023-06-19T05:09:18;17.10;1.00
38938;DHT22;24727;51.974;20.868;2023-06-19T05:11:44;17.10;1.00
38938;DHT22;24727;51.974;20.868;2023-06-19T05:14:10;17.40;1.00
38938;DHT22;24727;51.974;20.868;2023-06-19T05:16:36;17.50;1.00
38938;DHT22;24727;51.974;20.868;2023-06-19T05:19:02;17.70;1.00
38938;DHT22;24727;51.974;20.868;2023-06-19T05:21:28;17.70;1.00
38938;DHT22;24727;51.974;20.868;2023-06-19T05:23:54;17.70;1.00
38938;DHT22;24727;51.974;20.868;2023-06-19T05:26:20;17.70;1.00
38938;DHT22;24727;51.974;20.868;2023-06-19T05:28:47;18.00;1.00
38938;DHT22;24727;51.974;20.868;2023-06-19T05:31:13;18.20;1.00
38938;DHT22;24727;51.974;20.868;2023-06-19T05:33:40;18.30;1.00
38938;DHT22;24727;51.974;20.868;2023-06-19T05:36:07;18.50;1.00
38938;DHT22;24727;51.974;20.868;2023-06-19T05:38:32;18.40;1.00
38938;DHT22;24727;51.974;20.868;2023-06-19T05:40:59;18.70;1.00
38938;DHT22;24727;51.974;20.868;2023-06-19T05:43:26;18.80;1.00
38938;DHT22;24727;51.974;20.868;2023-06-19T05:45:55;18.80;1.00
38938;DHT22;24727;51.974;20.868;2023-06-19T05:48:21;18.90;1.00
38938;DHT22;24727;51.974;20.868;2023-06-19T05:50:48;19.20;1.00
38938;DHT22;24727;51.974;20.868;2023-06-19T05:53:13;19.30;1.00
38938;DHT22;24727;51.974;20.868;2023-06-19T05:55:39;19.20;1.00
38938;DHT22;24727;51.974;20.868;2023-06-19T05:58:05;19.30;1.00
38938;DHT22;24727;51.974;20.868;2023-06-19T06:00:32;19.60;1.00
38938;DHT22;24727;51.974;20.868;2023-06-19T06:02:58;19.70;1.00
38938;DHT22;24727;51.974;20.868;2023-06-19T06:05:28;19.50;1.00
38938;DHT22;24727;51.974;20.868;2023-06-19T06:07:55;19.70;1.00
38938;DHT22;24727;51.974;20.868;2023-06-19T06:10:24;20.20;1.00
38938;DHT22;24727;51.974;20.868;2023-06-19T06:12:52;20.60;1.00
38938;DHT22;24727;51.974;20.868;2023-06-19T06:15:17;20.90;1.00
38938;DHT22;24727;51.974;20.868;2023-06-19T06:17:43;21.10;1.00
38938;DHT22;24727;51.974;20.868;2023-06-19T06:20:09;21.10;1.00
38938;DHT22;24727;51.974;20.868;2023-06-19T06:22:39;21.20;1.00
38938;DHT22;24727;51.974;20.868;2023-06-19T06:25:05;21.70;1.00
38938;DHT22;24727;51.974;20.868;2023-06-19T06:27:32;22.10;1.00
38938;DHT22;24727;51.974;20.868;2023-06-19T06:29:59;22.30;1.00
38938;DHT22;24727;51.974;20.868;2023-06-19T06:32:25;22.70;1.00
38938;DHT22;24727;51.974;20.868;2023-06-19T06:34:52;23.10;1.00
38938;DHT22;24727;51.974;20.868;2023-06-19T06:37:19;23.40;1.00
38938;DHT22;24727;51.974;20.868;2023-06-19T06:39:49;23.60;1.00
38938;DHT22;24727;51.974;20.868;2023-06-19T06:42:18;23.90;1.00
38938;DHT22;24727;51.974;20.868;2023-06-19T06:44:45;24.20;1.00
38938;DHT22;24727;51.974;20.868;2023-06-19T06:47:11;24.20;1.00
38938;DHT22;24727;51.974;20.868;2023-06-19T06:49:37;24.40;1.00
38938;DHT22;24727;51.974;20.868;2023-06-19T06:52:07;24.10;1.00
38938;DHT22;24727;51.974;20.868;2023-06-19T06:54:33;24.30;1.00
38938;DHT22;24727;51.974;20.868;2023-06-19T06:56:59;24.80;1.00
38938;DHT22;24727;51.974;20.868;2023-06-19T06:59:26;25.20;1.00
38938;DHT22;24727;51.974;20.868;2023-06-19T07:01:55;25.00;1.00
38938;DHT22;24727;51.974;20.868;2023-06-19T07:04:22;25.00;1.00
38938;DHT22;24727;51.974;20.868;2023-06-19T07:06:48;24.70;1.00
38938;DHT22;24727;51.974;20.868;2023-06-19T07:09:20;25.20;1.00
38938;DHT22;24727;51.974;20.868;2023-06-19T07:11:46;25.60;1.00
38938;DHT22;24727;51.974;20.868;2023-06-19T07:14:14;25.60;1.00
38938;DHT22;24727;51.974;20.868;2023-06-19T07:16:44;26.30;1.00
38938;DHT22;24727;51.974;20.868;2023-06-19T07:19:11;26.50;1.00
38938;DHT22;24727;51.974;20.868;2023-06-19T07:21:38;26.80;1.00
38938;DHT22;24727;51.974;20.868;2023-06-19T07:24:05;27.00;1.00
38938;DHT22;24727;51.974;20.868;2023-06-19T07:26:31;27.00;1.00
38938;DHT22;24727;51.974;20.868;2023-06-19T07:28:57;27.30;1.00
38938;DHT22;24727;51.974;20.868;2023-06-19T07:31:23;27.40;1.00
38938;DHT22;24727;51.974;20.868;2023-06-19T07:33:49;27.80;1.00
38938;DHT22;24727;51.974;20.868;2023-06-19T07:36:16;28.10;1.00
38938;DHT22;24727;51.974;20.868;2023-06-19T07:38:43;28.30;1.00
38938;DHT22;24727;51.974;20.868;2023-06-19T07:41:09;28.50;1.00
38938;DHT22;24727;51.974;20.868;2023-06-19T07:43:37;28.10;1.00
38938;DHT22;24727;51.974;20.868;2023-06-19T07:46:05;26.80;1.00
38938;DHT22;24727;51.974;20.868;2023-06-19T07:48:31;27.20;1.00
38938;DHT22;24727;51.974;20.868;2023-06-19T07:50:57;27.80;1.00
38938;DHT22;24727;51.974;20.868;2023-06-19T07:53:23;28.20;1.00
38938;DHT22;24727;51.974;20.868;2023-06-19T07:55:51;28.30;1.00
38938;DHT22;24727;51.974;20.868;2023-06-19T07:58:17;27.80;1.00
38938;DHT22;24727;51.974;20.868;2023-06-19T08:00:44;28.10;1.00
38938;DHT22;24727;51.974;20.868;2023-06-19T08:03:10;28.20;1.00
38938;DHT22;24727;51.974;20.868;2023-06-19T08:05:36;28.80;1.00
38938;DHT22;24727;51.974;20.868;2023-06-19T08:08:02;29.30;1.00
38938;DHT22;24727;51.974;20.868;2023-06-19T08:10:28;29.60;1.00
38938;DHT22;24727;51.974;20.868;2023-06-19T08:13:00;29.90;1.00
38938;DHT22;24727;51.974;20.868;2023-06-19T08:15:27;30.20;1.00
38938;DHT22;24727;51.974;20.868;2023-06-19T08:17:53;30.00;1.00
38938;DHT22;24727;51.974;20.868;2023-06-19T08:20:19;29.40;1.00
38938;DHT22;24727;51.974;20.868;2023-06-19T08:22:46;29.00;1.00
38938;DHT22;24727;51.974;20.868;2023-06-19T08:25:13;28.40;1.00
38938;DHT22;24727;51.974;20.868;2023-06-19T08:27:39;29.00;1.00
38938;DHT22;24727;51.974;20.868;2023-06-19T08:30:05;29.20;1.00
38938;DHT22;24727;51.974;20.868;2023-06-19T08:32:31;29.90;1.00
38938;DHT22;24727;51.974;20.868;2023-06-19T08:34:58;30.40;1.00
38938;DHT22;24727;51.974;20.868;2023-06-19T08:37:24;30.00;1.00
38938;DHT22;24727;51.974;20.868;2023-06-19T08:39:51;30.70;1.00
38938;DHT22;24727;51.974;20.868;2023-06-19T08:42:18;30.80;1.00
38938;DHT22;24727;51.974;20.868;2023-06-19T08:44:45;30.70;1.00
38938;DHT22;24727;51.974;20.868;2023-06-19T08:47:12;29.40;1.00
38938;DHT22;24727;51.974;20.868;2023-06-19T08:49:39;29.00;1.00
38938;DHT22;24727;51.974;20.868;2023-06-19T08:52:05;29.80;1.00
38938;DHT22;24727;51.974;20.868;2023-06-19T08:54:32;30.80;1.00
38938;DHT22;24727;51.974;20.868;2023-06-19T08:57:02;31.30;1.00
38938;DHT22;24727;51.974;20.868;2023-06-19T08:59:30;31.50;1.00
38938;DHT22;24727;51.974;20.868;2023-06-19T09:01:59;31.70;1.00
38938;DHT22;24727;51.974;20.868;2023-06-19T09:04:26;31.70;1.00
38938;DHT22;24727;51.974;20.868;2023-06-19T09:06:54;31.70;1.00
38938;DHT22;24727;51.974;20.868;2023-06-19T09:09:24;32.00;1.00
38938;DHT22;24727;51.974;20.868;2023-06-19T09:12:05;31.90;1.00
38938;DHT22;24727;51.974;20.868;2023-06-19T09:14:37;31.30;1.00
38938;DHT22;24727;51.974;20.868;2023-06-19T09:17:04;30.60;1.00
38938;DHT22;24727;51.974;20.868;2023-06-19T09:19:33;29.40;1.00
38938;DHT22;24727;51.974;20.868;2023-06-19T09:22:06;29.00;1.00
38938;DHT22;24727;51.974;20.868;2023-06-19T09:24:34;29.60;1.00
38938;DHT22;24727;51.974;20.868;2023-06-19T09:27:16;30.10;1.00
38938;DHT22;24727;51.974;20.868;2023-06-19T09:29:49;30.60;1.00
38938;DHT22;24727;51.974;20.868;2023-06-19T09:32:25;31.30;1.00
38938;DHT22;24727;51.974;20.868;2023-06-19T09:34:55;31.30;1.00
38938;DHT22;24727;51.974;20.868;2023-06-19T09:37:30;31.60;1.00
38938;DHT22;24727;51.974;20.868;2023-06-19T09:39:58;31.80;1.00
38938;DHT22;24727;51.974;20.868;2023-06-19T09:42:32;31.80;1.00
38938;DHT22;24727;51.974;20.868;2023-06-19T09:45:10;30.60;1.00
38938;DHT22;24727;51.974;20.868;2023-06-19T09:47:45;30.60;1.00
38938;DHT22;24727;51.974;20.868;2023-06-19T09:50:15;31.10;1.00
38938;DHT22;24727;51.974;20.868;2023-06-19T09:52:43;31.70;1.00
38938;DHT22;24727;51.974;20.868;2023-06-19T09:55:11;31.60;1.00
38938;DHT22;24727;51.974;20.868;2023-06-19T09:57:42;31.60;1.00
38938;DHT22;24727;51.974;20.868;2023-06-19T10:00:10;32.30;1.00
38938;DHT22;24727;51.974;20.868;2023-06-19T10:02:43;32.40;1.00
38938;DHT22;24727;51.974;20.868;2023-06-19T10:05:10;32.50;1.00
38938;DHT22;24727;51.974;20.868;2023-06-19T10:07:49;31.20;1.00
38938;DHT22;24727;51.974;20.868;2023-06-19T10:10:26;31.40;1.00
38938;DHT22;24727;51.974;20.868;2023-06-19T10:12:55;31.60;1.00
38938;DHT22;24727;51.974;20.868;2023-06-19T10:15:24;32.10;1.00
38938;DHT22;24727;51.974;20.868;2023-06-19T10:17:51;32.60;1.00
38938;DHT22;24727;51.974;20.868;2023-06-19T10:20:58;32.30;1.00
38938;DHT22;24727;51.974;20.868;2023-06-19T10:23:25;31.90;1.00
38938;DHT22;24727;51.974;20.868;2023-06-19T10:25:59;32.40;1.00
38938;DHT22;24727;51.974;20.868;2023-06-19T10:28:32;33.00;1.00
38938;DHT22;24727;51.974;20.868;2023-06-19T10:31:06;33.60;1.00
38938;DHT22;24727;51.974;20.868;2023-06-19T10:33:35;33.40;1.00
38938;DHT22;24727;51.974;20.868;2023-06-19T10:36:23;32.90;1.00
38938;DHT22;24727;51.974;20.868;2023-06-19T10:38:51;32.20;1.00
38938;DHT22;24727;51.974;20.868;2023-06-19T10:41:20;31.10;1.00
38938;DHT22;24727;51.974;20.868;2023-06-19T10:44:07;31.40;1.00
38938;DHT22;24727;51.974;20.868;2023-06-19T10:46:39;32.40;1.00
38938;DHT22;24727;51.974;20.868;2023-06-19T10:49:07;33.10;1.00
38938;DHT22;24727;51.974;20.868;2023-06-19T10:52:04;32.90;1.00
38938;DHT22;24727;51.974;20.868;2023-06-19T10:54:30;33.00;1.00
38938;DHT22;24727;51.974;20.868;2023-06-19T10:56:57;33.00;1.00
38938;DHT22;24727;51.974;20.868;2023-06-19T10:59:24;33.60;1.00
38938;DHT22;24727;51.974;20.868;2023-06-19T11:01:50;33.50;1.00
38938;DHT22;24727;51.974;20.868;2023-06-19T11:04:16;32.90;1.00
38938;DHT22;24727;51.974;20.868;2023-06-19T11:06:44;32.50;1.00
38938;DHT22;24727;51.974;20.868;2023-06-19T11:09:12;33.30;1.00
38938;DHT22;24727;51.974;20.868;2023-06-19T11:11:43;33.80;1.00
38938;DHT22;24727;51.974;20.868;2023-06-19T11:14:13;34.90;1.00
38938;DHT22;24727;51.974;20.868;2023-06-19T11:16:41;35.80;1.00
38938;DHT22;24727;51.974;20.868;2023-06-19T11:19:18;36.20;1.00
38938;DHT22;24727;51.974;20.868;2023-06-19T11:21:49;35.80;1.00
38938;DHT22;24727;51.974;20.868;2023-06-19T11:24:16;36.30;1.00
38938;DHT22;24727;51.974;20.868;2023-06-19T11:26:52;36.20;1.00
38938;DHT22;24727;51.974;20.868;2023-06-19T11:29:25;36.70;1.00
38938;DHT22;24727;51.974;20.868;2023-06-19T11:32:03;36.90;1.00
38938;DHT22;24727;51.974;20.868;2023-06-19T11:34:35;37.50;1.00
38938;DHT22;24727;51.974;20.868;2023-06-19T11:37:14;37.70;1.00
38938;DHT22;24727;51.974;20.868;2023-06-19T11:39:44;37.50;1.00
38938;DHT22;24727;51.974;20.868;2023-06-19T11:42:10;36.70;1.00
38938;DHT22;24727;51.974;20.868;2023-06-19T11:44:53;36.00;1.00
38938;DHT22;24727;51.974;20.868;2023-06-19T11:47:19;36.40;1.00
38938;DHT22;24727;51.974;20.868;2023-06-19T11:49:50;36.80;1.00
38938;DHT22;24727;51.974;20.868;2023-06-19T11:52:16;35.80;1.00
38938;DHT22;24727;51.974;20.868;2023-06-19T11:54:43;36.40;1.00
38938;DHT22;24727;51.974;20.868;2023-06-19T11:57:10;35.80;1.00
38938;DHT22;24727;51.974;20.868;2023-06-19T11:59:41;36.30;1.00
38938;DHT22;24727;51.974;20.868;2023-06-19T12:02:08;36.50;1.00
38938;DHT22;24727;51.974;20.868;2023-06-19T12:04:34;36.70;1.00
38938;DHT22;24727;51.974;20.868;2023-06-19T12:07:00;36.80;1.00
38938;DHT22;24727;51.974;20.868;2023-06-19T12:09:27;36.70;1.00
38938;DHT22;24727;51.974;20.868;2023-06-19T12:11:56;36.60;1.00
38938;DHT22;24727;51.974;20.868;2023-06-19T12:14:21;36.50;1.00
38938;DHT22;24727;51.974;20.868;2023-06-19T12:16:47;36.30;1.00
38938;DHT22;24727;51.974;20.868;2023-06-19T12:19:13;36.20;1.00
38938;DHT22;24727;51.974;20.868;2023-06-19T12:21:39;36.00;1.00
38938;DHT22;24727;51.974;20.868;2023-06-19T12:24:07;35.80;1.00
38938;DHT22;24727;51.974;20.868;2023-06-19T12:26:36;35.50;1.00
38938;DHT22;24727;51.974;20.868;2023-06-19T12:29:06;35.10;1.00
38938;DHT22;24727;51.974;20.868;2023-06-19T12:31:33;34.80;1.00
38938;DHT22;24727;51.974;20.868;2023-06-19T12:34:08;34.50;1.00
38938;DHT22;24727;51.974;20.868;2023-06-19T12:36:34;34.50;1.00
38938;DHT22;24727;51.974;20.868;2023-06-19T12:39:00;34.20;1.00
38938;DHT22;24727;51.974;20.868;2023-06-19T12:41:27;34.20;1.00
38938;DHT22;24727;51.974;20.868;2023-06-19T12:43:54;34.40;1.00
38938;DHT22;24727;51.974;20.868;2023-06-19T12:46:21;34.40;1.00
38938;DHT22;24727;51.974;20.868;2023-06-19T12:48:47;34.70;1.00
38938;DHT22;24727;51.974;20.868;2023-06-19T12:51:19;34.90;1.00
38938;DHT22;24727;51.974;20.868;2023-06-19T12:53:45;34.80;1.00
38938;DHT22;24727;51.974;20.868;2023-06-19T12:56:11;34.80;1.00
38938;DHT22;24727;51.974;20.868;2023-06-19T12:58:37;34.70;1.00
38938;DHT22;24727;51.974;20.868;2023-06-19T13:01:04;34.70;1.00
38938;DHT22;24727;51.974;20.868;2023-06-19T13:03:29;34.80;1.00
38938;DHT22;24727;51.974;20.868;2023-06-19T13:05:55;35.00;1.00
38938;DHT22;24727;51.974;20.868;2023-06-19T13:08:22;35.20;1.00
38938;DHT22;24727;51.974;20.868;2023-06-19T13:10:48;35.40;1.00
38938;DHT22;24727;51.974;20.868;2023-06-19T13:13:14;35.50;1.00
38938;DHT22;24727;51.974;20.868;2023-06-19T13:15:40;34.80;1.00
38938;DHT22;24727;51.974;20.868;2023-06-19T13:18:05;34.90;1.00
38938;DHT22;24727;51.974;20.868;2023-06-19T13:20:34;34.90;1.00
38938;DHT22;24727;51.974;20.868;2023-06-19T13:22:59;34.90;1.00
38938;DHT22;24727;51.974;20.868;2023-06-19T13:25:25;34.90;1.00
38938;DHT22;24727;51.974;20.868;2023-06-19T13:27:52;34.80;1.00
38938;DHT22;24727;51.974;20.868;2023-06-19T13:30:18;34.80;1.00
38938;DHT22;24727;51.974;20.868;2023-06-19T13:32:45;34.80;1.00
38938;DHT22;24727;51.974;20.868;2023-06-19T13:35:11;34.80;1.00
38938;DHT22;24727;51.974;20.868;2023-06-19T13:37:37;34.80;1.00
38938;DHT22;24727;51.974;20.868;2023-06-19T13:40:07;34.70;1.00
38938;DHT22;24727;51.974;20.868;2023-06-19T13:42:34;34.60;1.00
38938;DHT22;24727;51.974;20.868;2023-06-19T13:45:01;34.70;1.00
38938;DHT22;24727;51.974;20.868;2023-06-19T13:47:28;34.90;1.00
38938;DHT22;24727;51.974;20.868;2023-06-19T13:49:54;34.50;1.00
38938;DHT22;24727;51.974;20.868;2023-06-19T13:52:20;34.40;1.00
38938;DHT22;24727;51.974;20.868;2023-06-19T13:54:46;34.00;1.00
38938;DHT22;24727;51.974;20.868;2023-06-19T13:57:12;33.80;1.00
38938;DHT22;24727;51.974;20.868;2023-06-19T13:59:38;33.20;1.00
38938;DHT22;24727;51.974;20.868;2023-06-19T14:02:05;33.80;1.00
38938;DHT22;24727;51.974;20.868;2023-06-19T14:04:31;33.90;1.00
38938;DHT22;24727;51.974;20.868;2023-06-19T14:06:57;33.80;1.00
38938;DHT22;24727;51.974;20.868;2023-06-19T14:09:23;33.90;1.00
38938;DHT22;24727;51.974;20.868;2023-06-19T14:11:49;33.70;1.00
38938;DHT22;24727;51.974;20.868;2023-06-19T14:14:15;33.10;1.00
38938;DHT22;24727;51.974;20.868;2023-06-19T14:16:41;32.00;1.00
38938;DHT22;24727;51.974;20.868;2023-06-19T14:19:08;31.40;1.00
38938;DHT22;24727;51.974;20.868;2023-06-19T14:21:34;31.50;1.00
38938;DHT22;24727;51.974;20.868;2023-06-19T14:24:01;32.30;1.00
38938;DHT22;24727;51.974;20.868;2023-06-19T14:26:27;31.80;1.00
38938;DHT22;24727;51.974;20.868;2023-06-19T14:28:53;32.30;1.00
38938;DHT22;24727;51.974;20.868;2023-06-19T14:31:25;32.30;1.00
38938;DHT22;24727;51.974;20.868;2023-06-19T14:33:51;32.70;1.00
38938;DHT22;24727;51.974;20.868;2023-06-19T14:36:16;33.10;1.00
38938;DHT22;24727;51.974;20.868;2023-06-19T14:38:42;32.20;1.00
38938;DHT22;24727;51.974;20.868;2023-06-19T14:41:09;32.30;1.00
38938;DHT22;24727;51.974;20.868;2023-06-19T14:43:35;32.60;1.00
38938;DHT22;24727;51.974;20.868;2023-06-19T14:46:01;32.60;1.00
38938;DHT22;24727;51.974;20.868;2023-06-19T14:48:30;32.70;1.00
38938;DHT22;24727;51.974;20.868;2023-06-19T14:50:57;32.30;1.00
38938;DHT22;24727;51.974;20.868;2023-06-19T14:53:23;31.90;1.00
38938;DHT22;24727;51.974;20.868;2023-06-19T14:55:49;31.80;1.00
38938;DHT22;24727;51.974;20.868;2023-06-19T14:58:16;31.80;1.00
38938;DHT22;24727;51.974;20.868;2023-06-19T15:00:42;31.70;1.00
38938;DHT22;24727;51.974;20.868;2023-06-19T15:03:08;31.60;1.00
38938;DHT22;24727;51.974;20.868;2023-06-19T15:05:35;31.70;1.00
38938;DHT22;24727;51.974;20.868;2023-06-19T15:08:01;31.80;1.00
38938;DHT22;24727;51.974;20.868;2023-06-19T15:10:27;31.50;1.00
38938;DHT22;24727;51.974;20.868;2023-06-19T15:12:53;30.90;1.00
38938;DHT22;24727;51.974;20.868;2023-06-19T15:15:19;31.00;1.00
38938;DHT22;24727;51.974;20.868;2023-06-19T15:17:46;31.40;1.00
38938;DHT22;24727;51.974;20.868;2023-06-19T15:20:18;31.20;1.00
38938;DHT22;24727;51.974;20.868;2023-06-19T15:22:46;30.90;1.00
38938;DHT22;24727;51.974;20.868;2023-06-19T15:25:13;30.50;1.00
38938;DHT22;24727;51.974;20.868;2023-06-19T15:27:39;30.70;1.00
38938;DHT22;24727;51.974;20.868;2023-06-19T15:30:07;30.80;1.00
38938;DHT22;24727;51.974;20.868;2023-06-19T15:32:33;31.00;1.00
38938;DHT22;24727;51.974;20.868;2023-06-19T15:35:01;31.00;1.00
38938;DHT22;24727;51.974;20.868;2023-06-19T15:37:29;30.70;1.00
38938;DHT22;24727;51.974;20.868;2023-06-19T15:39:55;30.40;1.00